Time;durP1;ratioP1;P1;durP2;ratioP2;P2;SDS_P1;SDS_P2;PMS_P1;PMS_P2;Temp;Humidity;BMP_temperature;BMP_pressure;BME280_temperature;BME280_humidity;BME280_pressure;Samples;Min_cycle;Max_cycle;Signal;HPM_P1;HPM_P2
2021/01/22 00:01:27;;;;;;;1.45;0.88;;;10.70;99.90;;;;;;4136333;28;20149;-90
2021/01/22 00:03:29;;;;;;;0.40;0.30;;;10.70;99.90;;;;;;4127377;28;20137;-90
2021/01/22 00:05:30;;;;;;;0.63;0.35;;;10.70;99.90;;;;;;4143367;28;20153;-90
2021/01/22 00:07:31;;;;;;;1.30;1.20;;;10.70;99.90;;;;;;4130588;28;20462;-89
2021/01/22 00:09:33;;;;;;;0.20;0.20;;;10.70;99.90;;;;;;4129400;28;20411;-90
2021/01/22 00:11:34;;;;;;;3.60;0.63;;;10.70;99.90;;;;;;4128079;28;20536;-90
2021/01/22 00:13:35;;;;;;;0.13;0.13;;;10.70;99.90;;;;;;4150394;28;20050;-91
2021/01/22 00:15:36;;;;;;;0.32;0.22;;;10.70;99.90;;;;;;4135677;28;20046;-90
2021/01/22 00:17:38;;;;;;;0.30;0.30;;;10.70;99.90;;;;;;4121411;28;20141;-91
2021/01/22 00:19:42;;;;;;;0.38;0.20;;;10.70;99.90;;;;;;4150046;28;20077;-91
2021/01/22 00:21:43;;;;;;;0.25;0.20;;;10.70;99.90;;;;;;4129554;28;20054;-91
2021/01/22 00:23:45;;;;;;;0.55;0.45;;;10.70;99.90;;;;;;4124690;28;20138;-90
2021/01/22 00:25:46;;;;;;;0.40;0.40;;;10.60;99.90;;;;;;4116870;28;20058;-91
2021/01/22 00:27:47;;;;;;;0.70;0.35;;;10.70;99.90;;;;;;4135617;28;20503;-90
2021/01/22 00:29:48;;;;;;;0.95;0.30;;;10.70;99.90;;;;;;4130443;28;20053;-90
2021/01/22 00:31:50;;;;;;;0.70;0.20;;;10.70;99.90;;;;;;4116925;28;20055;-89
2021/01/22 00:33:51;;;;;;;0.40;0.40;;;10.60;99.90;;;;;;4117720;28;20538;-91
2021/01/22 00:35:52;;;;;;;0.50;0.20;;;10.60;99.90;;;;;;4118622;28;20534;-91
2021/01/22 00:37:54;;;;;;;2.33;0.73;;;10.60;99.90;;;;;;4131430;28;20133;-91
2021/01/22 00:39:55;;;;;;;1.77;0.55;;;10.60;99.90;;;;;;4122041;28;20055;-90
2021/01/22 00:41:56;;;;;;;0.20;0.20;;;10.60;99.90;;;;;;4117703;28;20137;-89
2021/01/22 00:43:58;;;;;;;0.70;0.30;;;10.60;99.90;;;;;;4117192;28;20054;-90
2021/01/22 00:46:00;;;;;;;1.48;0.70;;;10.60;99.90;;;;;;4143837;28;20049;-90
2021/01/22 00:48:02;;;;;;;1.45;0.57;;;10.60;99.90;;;;;;4125005;28;20050;-90
2021/01/22 00:50:04;;;;;;;0.28;0.20;;;10.60;99.90;;;;;;4146775;28;20057;-90
2021/01/22 00:52:06;;;;;;;0.77;0.63;;;10.60;99.90;;;;;;4144719;28;20089;-90
2021/01/22 00:54:08;;;;;;;1.95;0.60;;;10.60;99.90;;;;;;4149965;28;20042;-91
2021/01/22 00:56:09;;;;;;;1.25;0.80;;;10.60;99.90;;;;;;4146053;28;20502;-90
2021/01/22 00:58:13;;;;;;;0.60;0.43;;;10.50;99.90;;;;;;4117084;28;20118;-90
2021/01/22 01:00:15;;;;;;;0.20;0.20;;;10.60;99.90;;;;;;4121959;28;20074;-88
2021/01/22 01:02:16;;;;;;;0.30;0.30;;;10.60;99.90;;;;;;4127897;28;20053;-91
2021/01/22 01:04:18;;;;;;;0.30;0.15;;;10.60;99.90;;;;;;4136290;28;20077;-90
2021/01/22 01:06:19;;;;;;;0.20;0.20;;;10.60;99.90;;;;;;4138042;28;20066;-90
2021/01/22 01:08:20;;;;;;;0.45;0.35;;;10.60;99.90;;;;;;4152187;28;20399;-91
2021/01/22 01:10:22;;;;;;;1.33;0.35;;;10.60;99.90;;;;;;4152146;28;20105;-90
2021/01/22 01:12:23;;;;;;;0.50;0.50;;;10.60;99.90;;;;;;4156494;28;20045;-90
2021/01/22 01:14:24;;;;;;;0.38;0.38;;;10.60;99.90;;;;;;4134535;28;20042;-91
2021/01/22 01:16:25;;;;;;;0.98;0.73;;;10.60;99.90;;;;;;4119223;28;20059;-91
2021/01/22 01:18:27;;;;;;;1.13;0.50;;;10.60;99.90;;;;;;4136488;28;20046;-90
2021/01/22 01:20:28;;;;;;;0.40;0.22;;;10.60;99.90;;;;;;4144047;28;20058;-91
2021/01/22 01:22:29;;;;;;;1.80;0.20;;;10.60;99.90;;;;;;4133671;28;20054;-91
2021/01/22 01:24:30;;;;;;;1.02;0.43;;;10.60;99.90;;;;;;4118956;28;20051;-91
2021/01/22 01:26:32;;;;;;;0.22;0.10;;;10.70;99.90;;;;;;4109746;28;20054;-91
2021/01/22 01:28:33;;;;;;;1.38;0.45;;;10.70;99.90;;;;;;4133967;28;20630;-91
2021/01/22 01:30:35;;;;;;;0.38;0.38;;;10.70;99.90;;;;;;4143329;28;20138;-91
2021/01/22 01:32:36;;;;;;;0.20;0.20;;;10.70;99.90;;;;;;4160395;28;20077;-91
2021/01/22 01:34:38;;;;;;;0.90;0.30;;;10.70;99.90;;;;;;4133279;28;20087;-91
2021/01/22 01:36:39;;;;;;;0.90;0.55;;;10.80;99.90;;;;;;4136229;28;20050;-91
2021/01/22 01:38:40;;;;;;;0.20;0.20;;;10.70;99.90;;;;;;4135718;28;20046;-91
2021/01/22 01:40:41;;;;;;;0.25;0.20;;;10.70;99.90;;;;;;4116484;28;20377;-91
2021/01/22 01:42:43;;;;;;;0.10;0.10;;;10.70;99.90;;;;;;4139311;28;20145;-92
2021/01/22 01:44:44;;;;;;;0.30;0.10;;;10.70;99.90;;;;;;4135882;28;20491;-91
2021/01/22 01:46:45;;;;;;;1.08;0.63;;;10.70;99.90;;;;;;4147435;28;20133;-91
2021/01/22 01:48:47;;;;;;;0.22;0.22;;;10.70;99.90;;;;;;4119858;28;20518;-91
2021/01/22 01:50:48;;;;;;;0.10;0.10;;;10.80;99.90;;;;;;4136563;28;20045;-91
2021/01/22 01:52:49;;;;;;;0.20;0.20;;;10.80;99.90;;;;;;4147184;28;20529;-90
2021/01/22 01:54:51;;;;;;;0.13;0.10;;;10.80;99.90;;;;;;4129405;28;20476;-91
2021/01/22 01:56:52;;;;;;;2.05;1.45;;;10.80;99.90;;;;;;4142351;28;20119;-90
2021/01/22 01:58:54;;;;;;;0.60;0.60;;;10.80;99.90;;;;;;4114884;28;20061;-91
2021/01/22 02:00:55;;;;;;;0.80;0.35;;;10.80;99.90;;;;;;4120278;28;20047;-91
2021/01/22 02:02:56;;;;;;;0.75;0.68;;;10.80;99.90;;;;;;4131156;28;20077;-91
2021/01/22 02:04:58;;;;;;;0.10;0.10;;;10.80;99.90;;;;;;4129148;28;20489;-91
2021/01/22 02:06:59;;;;;;;0.57;0.40;;;10.80;99.90;;;;;;4125934;28;20054;-91
2021/01/22 02:09:00;;;;;;;0.57;0.30;;;10.70;99.90;;;;;;4125002;28;20058;-91
2021/01/22 02:11:02;;;;;;;0.88;0.50;;;10.70;99.90;;;;;;4118434;28;20062;-91
2021/01/22 02:13:03;;;;;;;2.83;0.68;;;10.70;99.90;;;;;;4120953;28;20908;-91
2021/01/22 02:15:07;;;;;;;0.30;0.30;;;10.80;99.90;;;;;;4122648;28;20064;-91
2021/01/22 02:17:08;;;;;;;0.13;0.10;;;10.80;99.90;;;;;;4144118;28;20050;-92
2021/01/22 02:19:10;;;;;;;0.70;0.45;;;10.80;99.90;;;;;;4135983;28;20050;-91
2021/01/22 02:21:28;;;;;;;0.60;0.32;;;10.80;99.90;;;;;;4119768;28;20381;-92
2021/01/22 02:23:32;;;;;;;2.60;0.40;;;10.80;99.90;;;;;;4137982;28;20042;-91
2021/01/22 02:25:35;;;;;;;2.47;0.47;;;10.80;99.90;;;;;;4153391;28;20074;-89
2021/01/22 02:27:37;;;;;;;0.57;0.20;;;10.80;99.90;;;;;;4125547;28;20055;-91
2021/01/22 02:29:38;;;;;;;0.55;0.40;;;10.80;99.90;;;;;;4121702;28;20054;-91
2021/01/22 02:31:41;;;;;;;0.70;0.50;;;10.80;99.90;;;;;;4132525;28;20137;-91
2021/01/22 02:33:45;;;;;;;0.60;0.30;;;10.80;99.90;;;;;;4126872;28;20046;-91
2021/01/22 02:35:49;;;;;;;1.55;0.55;;;10.90;99.90;;;;;;4126879;28;20061;-90
2021/01/22 02:37:51;;;;;;;0.65;0.55;;;10.90;99.90;;;;;;4131195;28;20133;-91
2021/01/22 02:39:52;;;;;;;0.45;0.45;;;10.90;99.90;;;;;;4151707;28;20184;-91
2021/01/22 02:41:55;;;;;;;0.20;0.20;;;10.90;99.90;;;;;;4119221;28;20050;-91
2021/01/22 02:43:57;;;;;;;1.35;0.63;;;10.80;99.90;;;;;;4128593;28;20141;-91
2021/01/22 02:45:58;;;;;;;0.65;0.20;;;10.80;99.90;;;;;;4119590;28;20055;-91
2021/01/22 02:47:59;;;;;;;0.57;0.30;;;10.80;99.90;;;;;;4135035;28;20050;-91
2021/01/22 02:50:03;;;;;;;0.17;0.15;;;10.90;99.90;;;;;;4115559;28;20075;-90
2021/01/22 02:52:05;;;;;;;0.65;0.65;;;10.90;99.90;;;;;;4134994;28;20113;-91
2021/01/22 02:54:06;;;;;;;0.77;0.52;;;10.90;99.90;;;;;;4119092;28;20054;-91
2021/01/22 02:56:39;;;;;;;1.27;1.05;;;10.90;99.90;;;;;;4113492;28;20058;-91
2021/01/22 02:59:09;;;;;;;0.20;0.20;;;10.90;99.90;;;;;;4163185;28;20052;-90
2021/01/22 03:01:12;;;;;;;0.75;0.22;;;10.90;99.90;;;;;;4102997;28;20051;-91
2021/01/22 03:03:38;;;;;;;1.90;0.75;;;10.90;99.90;;;;;;4074736;29;20134;-91
2021/01/22 03:05:40;;;;;;;0.40;0.38;;;10.90;99.90;;;;;;4079063;29;20074;-91
2021/01/22 03:07:48;;;;;;;1.98;0.40;;;10.80;99.90;;;;;;4067410;29;20082;-90
2021/01/22 03:09:52;;;;;;;0.75;0.40;;;10.80;99.90;;;;;;4095833;29;20055;-90
2021/01/22 03:11:54;;;;;;;4.03;2.15;;;10.80;99.90;;;;;;4076995;29;20058;-91
2021/01/22 03:13:55;;;;;;;0.30;0.25;;;10.90;99.90;;;;;;4053306;29;20074;-91
2021/01/22 03:15:56;;;;;;;0.30;0.20;;;10.90;99.90;;;;;;4089203;29;20528;-90
2021/01/22 03:18:10;;;;;;;;;;;10.90;99.90;;;;;;4071635;29;20071;-90
2021/01/22 03:20:17;;;;;;;1.50;1.40;;;10.80;99.90;;;;;;4082608;28;19923;-91
2021/01/22 03:22:18;;;;;;;0.63;0.40;;;10.80;99.90;;;;;;4070945;29;20067;-91
2021/01/22 03:24:20;;;;;;;2.88;1.88;;;10.80;99.90;;;;;;4086070;29;20043;-90
2021/01/22 03:26:22;;;;;;;0.93;0.65;;;10.80;99.90;;;;;;4097123;28;20048;-90
2021/01/22 03:28:23;;;;;;;1.00;0.63;;;10.70;99.90;;;;;;4070112;29;20063;-90
2021/01/22 03:30:24;;;;;;;0.47;0.47;;;10.70;99.90;;;;;;4086438;29;20544;-90
2021/01/22 03:32:25;;;;;;;1.05;0.20;;;10.70;99.90;;;;;;4068718;29;20052;-90
2021/01/22 03:34:29;;;;;;;0.47;0.40;;;10.70;99.90;;;;;;4069339;29;20055;-91
2021/01/22 03:36:30;;;;;;;0.52;0.50;;;10.60;99.90;;;;;;4055233;29;20056;-90
2021/01/22 03:38:33;;;;;;;0.32;0.30;;;10.60;99.90;;;;;;4088129;28;20061;-92
2021/01/22 03:40:34;;;;;;;0.47;0.32;;;10.60;99.90;;;;;;4131522;28;20146;-90
2021/01/22 03:42:36;;;;;;;0.50;0.25;;;10.50;99.90;;;;;;4139462;28;20066;-91
2021/01/22 03:44:37;;;;;;;0.35;0.20;;;10.50;99.90;;;;;;4129139;28;20050;-90
2021/01/22 03:46:38;;;;;;;0.47;0.43;;;10.50;99.90;;;;;;4137766;28;20047;-90
2021/01/22 03:48:40;;;;;;;0.75;0.75;;;10.50;99.90;;;;;;4121672;28;20054;-90
2021/01/22 03:50:41;;;;;;;4.40;0.35;;;10.50;99.90;;;;;;4137899;28;20390;-90
2021/01/22 03:52:43;;;;;;;1.95;1.75;;;10.50;99.90;;;;;;4134201;28;20078;-90
2021/01/22 03:54:45;;;;;;;0.10;0.10;;;10.50;99.90;;;;;;4117427;28;20162;-90
2021/01/22 03:56:46;;;;;;;1.50;0.80;;;10.50;99.90;;;;;;4130719;28;20057;-89
2021/01/22 03:58:48;;;;;;;0.93;0.50;;;10.40;99.90;;;;;;4133211;28;20046;-88
2021/01/22 04:00:49;;;;;;;0.35;0.35;;;10.40;99.90;;;;;;4121709;28;20054;-89
2021/01/22 04:02:51;;;;;;;0.68;0.57;;;10.40;99.90;;;;;;4123464;28;20141;-91
2021/01/22 04:04:52;;;;;;;4.05;1.30;;;10.40;99.90;;;;;;4132914;28;20050;-90
2021/01/22 04:06:53;;;;;;;0.88;0.35;;;10.30;99.90;;;;;;4122778;28;20042;-90
2021/01/22 04:08:54;;;;;;;0.85;0.30;;;10.40;99.90;;;;;;4137942;28;20141;-90
2021/01/22 04:10:56;;;;;;;0.10;0.10;;;10.30;99.90;;;;;;4117635;28;20051;-89
2021/01/22 04:12:57;;;;;;;0.20;0.20;;;10.40;99.90;;;;;;4136209;28;20141;-90
2021/01/22 04:14:58;;;;;;;3.83;0.47;;;10.30;99.90;;;;;;4132766;28;20050;-90
2021/01/22 04:16:59;;;;;;;1.85;0.75;;;10.30;99.90;;;;;;4126644;28;20186;-91
2021/01/22 04:19:02;;;;;;;5.97;0.95;;;10.30;99.90;;;;;;4138801;28;20035;-92
2021/01/22 04:21:04;;;;;;;0.95;0.20;;;10.30;99.90;;;;;;4144927;28;20039;-93
2021/01/22 04:23:05;;;;;;;0.50;0.50;;;10.20;99.90;;;;;;4167252;28;20042;-93
2021/01/22 04:25:07;;;;;;;0.43;0.30;;;10.20;99.90;;;;;;4158665;28;20053;-93
2021/01/22 04:27:09;;;;;;;0.82;0.30;;;10.20;99.90;;;;;;4172983;28;20064;-91
2021/01/22 04:29:10;;;;;;;1.30;0.60;;;10.20;99.90;;;;;;4149830;28;20074;-90
2021/01/22 04:31:12;;;;;;;0.20;0.20;;;10.20;99.90;;;;;;4133108;28;20055;-89
2021/01/22 04:33:13;;;;;;;1.85;0.40;;;10.20;99.90;;;;;;4127108;28;20141;-90
2021/01/22 04:35:15;;;;;;;0.60;0.60;;;10.20;99.90;;;;;;4103033;28;20046;-90
2021/01/22 04:37:16;;;;;;;0.50;0.38;;;10.20;99.90;;;;;;4137222;28;20050;-89
2021/01/22 04:39:18;;;;;;;0.75;0.57;;;10.20;99.90;;;;;;4118651;28;20051;-89
2021/01/22 04:41:19;;;;;;;0.50;0.47;;;10.10;99.90;;;;;;4114547;28;20054;-90
2021/01/22 04:43:20;;;;;;;2.50;0.47;;;10.10;99.90;;;;;;4136468;28;20068;-91
2021/01/22 04:45:21;;;;;;;0.43;0.20;;;10.10;99.90;;;;;;4118349;28;20519;-89
2021/01/22 04:47:23;;;;;;;0.55;0.45;;;10.10;99.90;;;;;;4106371;28;20428;-90
2021/01/22 04:49:24;;;;;;;0.30;0.25;;;10.10;99.90;;;;;;4149334;28;20046;-90
2021/01/22 04:51:25;;;;;;;1.23;1.13;;;10.10;99.90;;;;;;4122118;28;20555;-89
2021/01/22 04:53:27;;;;;;;0.55;0.20;;;10.10;99.90;;;;;;4116713;28;20530;-90
2021/01/22 04:55:29;;;;;;;0.40;0.35;;;10.10;99.90;;;;;;4135424;28;20057;-90
2021/01/22 04:57:30;;;;;;;0.95;0.90;;;10.10;99.90;;;;;;4127184;28;20050;-90
2021/01/22 04:59:38;;;;;;;0.80;0.60;;;10.10;99.90;;;;;;4130781;28;20069;-89
2021/01/22 05:01:39;;;;;;;7.35;0.60;;;10.10;99.90;;;;;;4168439;28;20053;-89
2021/01/22 05:03:41;;;;;;;0.65;0.50;;;10.10;99.90;;;;;;4118013;28;20109;-89
2021/01/22 05:05:42;;;;;;;0.63;0.57;;;10.10;99.90;;;;;;4139023;28;20049;-89
2021/01/22 05:07:44;;;;;;;1.10;0.85;;;10.10;99.90;;;;;;4117556;28;20500;-90
2021/01/22 05:09:45;;;;;;;1.88;0.40;;;10.20;99.90;;;;;;4142771;28;20442;-89
2021/01/22 05:11:56;;;;;;;0.85;0.30;;;10.20;99.90;;;;;;4124217;28;20579;-90
2021/01/22 05:13:57;;;;;;;0.50;0.50;;;10.20;99.90;;;;;;4132469;28;20136;-89
2021/01/22 05:16:12;;;;;;;0.43;0.43;;;10.30;99.90;;;;;;4135606;28;20133;-89
2021/01/22 05:18:15;;;;;;;0.45;0.30;;;10.40;99.90;;;;;;4136973;28;20050;-89
2021/01/22 05:20:20;;;;;;;0.20;0.20;;;10.50;99.80;;;;;;4102144;28;20122;-89
2021/01/22 05:22:21;;;;;;;0.15;0.15;;;10.60;99.50;;;;;;4101358;28;20142;-89
2021/01/22 05:24:23;;;;;;;0.50;0.50;;;10.60;99.50;;;;;;4134902;28;20052;-89
2021/01/22 05:26:25;;;;;;;0.35;0.35;;;10.70;99.00;;;;;;4142972;28;20416;-89
2021/01/22 05:28:30;;;;;;;1.52;0.50;;;10.70;99.00;;;;;;4147164;28;20060;-89
2021/01/22 05:30:32;;;;;;;0.30;0.20;;;10.70;99.00;;;;;;4140426;28;20065;-89
2021/01/22 05:32:33;;;;;;;1.50;1.17;;;10.70;99.10;;;;;;4141726;28;20485;-89
2021/01/22 05:34:45;;;;;;;0.43;0.43;;;10.70;99.40;;;;;;4117147;28;20066;-88
2021/01/22 05:36:50;;;;;;;0.50;0.50;;;10.60;99.80;;;;;;4124892;28;20141;-89
2021/01/22 05:38:52;;;;;;;0.20;0.20;;;10.50;99.90;;;;;;4127010;28;20141;-92
2021/01/22 05:40:53;;;;;;;0.25;0.25;;;10.50;99.90;;;;;;4116772;28;20933;-89
2021/01/22 05:42:55;;;;;;;1.02;0.50;;;10.40;99.90;;;;;;4120938;28;20051;-88
2021/01/22 05:44:57;;;;;;;0.80;0.43;;;10.40;99.90;;;;;;4122585;28;20065;-89
2021/01/22 05:47:04;;;;;;;0.63;0.47;;;10.40;99.90;;;;;;4130301;28;20074;-88
2021/01/22 05:49:14;;;;;;;2.08;1.92;;;10.40;99.90;;;;;;4117140;28;20061;-89
2021/01/22 05:51:18;;;;;;;0.35;0.20;;;10.40;99.90;;;;;;4145507;28;20057;-88
2021/01/22 05:53:20;;;;;;;0.20;0.20;;;10.40;99.90;;;;;;4132597;28;20565;-88
2021/01/22 05:55:23;;;;;;;0.70;0.70;;;10.30;99.90;;;;;;4116746;28;20067;-89
2021/01/22 05:57:25;;;;;;;0.20;0.10;;;10.40;99.90;;;;;;4116995;28;20065;-89
2021/01/22 05:59:26;;;;;;;0.88;0.32;;;10.30;99.90;;;;;;4133928;28;20529;-88
2021/01/22 06:01:28;;;;;;;0.65;0.40;;;10.40;99.90;;;;;;4132579;28;20054;-88
2021/01/22 06:03:29;;;;;;;0.80;0.68;;;10.40;99.90;;;;;;4144104;28;20056;-89
2021/01/22 06:05:31;;;;;;;1.25;0.98;;;10.40;99.90;;;;;;4141360;28;20565;-89
2021/01/22 06:07:32;;;;;;;0.93;0.50;;;10.40;99.90;;;;;;4147181;28;20528;-88
2021/01/22 06:09:34;;;;;;;1.13;0.30;;;10.50;99.90;;;;;;4136358;28;20086;-89
2021/01/22 06:11:35;;;;;;;2.90;0.38;;;10.50;99.60;;;;;;4134534;28;20588;-89
2021/01/22 06:13:38;;;;;;;0.57;0.50;;;10.50;99.60;;;;;;4132955;28;20534;-88
2021/01/22 06:15:39;;;;;;;0.40;0.20;;;10.50;99.60;;;;;;4136513;28;20050;-88
2021/01/22 06:17:42;;;;;;;4.03;1.75;;;10.50;99.60;;;;;;4127592;28;20050;-88
2021/01/22 06:19:44;;;;;;;0.47;0.28;;;10.50;99.90;;;;;;4133248;28;20057;-91
2021/01/22 06:22:17;;;;;;;1.25;0.55;;;10.50;99.80;;;;;;4137242;28;20054;-87
2021/01/22 06:24:19;;;;;;;0.30;0.30;;;10.50;99.80;;;;;;4131499;28;20051;-88
2021/01/22 06:26:20;;;;;;;0.30;0.20;;;10.50;99.80;;;;;;4115474;28;20431;-88
2021/01/22 06:28:22;;;;;;;1.90;0.30;;;10.50;99.80;;;;;;4148053;28;20100;-88
2021/01/22 06:30:24;;;;;;;0.75;0.30;;;10.50;99.90;;;;;;4137617;28;20046;-88
2021/01/22 06:32:25;;;;;;;3.03;0.52;;;10.50;99.90;;;;;;4126818;28;20043;-88
2021/01/22 06:34:27;;;;;;;0.57;0.57;;;10.50;99.80;;;;;;4115654;28;20046;-88
2021/01/22 06:36:30;;;;;;;8.15;0.43;;;10.50;99.70;;;;;;4132074;28;20054;-88
2021/01/22 06:38:32;;;;;;;0.20;0.20;;;10.50;99.90;;;;;;4117776;28;20066;-87
2021/01/22 06:40:34;;;;;;;1.85;0.40;;;10.50;99.80;;;;;;4133666;28;20050;-88
2021/01/22 06:42:39;;;;;;;1.55;0.70;;;10.50;99.90;;;;;;4100599;28;20058;-89
2021/01/22 06:44:40;;;;;;;4.38;0.75;;;10.50;99.90;;;;;;4139057;28;20132;-88
2021/01/22 06:46:41;;;;;;;1.40;0.47;;;10.50;99.90;;;;;;4131958;28;20513;-89
2021/01/22 06:48:58;;;;;;;1.15;1.05;;;10.50;99.90;;;;;;4115847;28;20051;-88
2021/01/22 06:51:16;;;;;;;0.43;0.32;;;10.50;99.90;;;;;;4133961;28;20077;-89
2021/01/22 06:53:18;;;;;;;0.17;0.17;;;10.50;99.90;;;;;;4144609;28;20137;-88
2021/01/22 06:55:19;;;;;;;2.63;1.13;;;10.50;99.90;;;;;;4118708;28;20158;-87
2021/01/22 06:57:20;;;;;;;0.60;0.60;;;10.50;99.90;;;;;;4127436;28;20046;-88
2021/01/22 06:59:24;;;;;;;0.30;0.30;;;10.50;99.90;;;;;;4144152;28;20081;-88
2021/01/22 07:01:33;;;;;;;0.20;0.20;;;10.50;99.90;;;;;;4150274;28;20054;-88
2021/01/22 07:03:37;;;;;;;1.75;0.93;;;10.50;99.90;;;;;;4142239;28;20082;-95
2021/01/22 07:05:40;;;;;;;1.52;0.30;;;10.50;99.90;;;;;;4159580;28;20053;-87
2021/01/22 07:07:48;;;;;;;14.55;0.93;;;10.50;99.90;;;;;;4147028;28;20052;-85
2021/01/22 07:09:49;;;;;;;0.50;0.50;;;10.50;99.90;;;;;;4151217;28;20050;-86
2021/01/22 07:11:55;;;;;;;1.75;1.65;;;10.50;99.90;;;;;;4151616;28;20561;-86
2021/01/22 07:13:56;;;;;;;5.22;0.88;;;10.50;99.90;;;;;;4146135;28;20097;-86
2021/01/22 07:16:04;;;;;;;1.73;0.63;;;10.50;99.90;;;;;;4151081;28;20052;-83
2021/01/22 07:18:06;;;;;;;1.45;0.55;;;10.50;99.90;;;;;;4151929;28;20072;-86
2021/01/22 07:20:08;;;;;;;1.15;0.40;;;10.50;99.90;;;;;;4130401;28;20046;-83
2021/01/22 07:22:14;;;;;;;0.28;0.28;;;10.50;99.90;;;;;;4154602;28;20631;-85
2021/01/22 07:24:18;;;;;;;1.08;0.50;;;10.50;99.90;;;;;;4153559;28;20077;-81
2021/01/22 07:26:19;;;;;;;1.48;0.60;;;10.50;99.90;;;;;;4151946;28;20130;-84
2021/01/22 07:28:21;;;;;;;0.68;0.60;;;10.50;99.90;;;;;;4153518;28;20054;-85
2021/01/22 07:30:23;;;;;;;3.15;0.47;;;10.50;99.90;;;;;;4154641;28;20137;-85
2021/01/22 07:32:28;;;;;;;0.40;0.28;;;10.50;99.90;;;;;;4135493;28;20046;-84
2021/01/22 07:34:36;;;;;;;1.10;0.93;;;10.50;99.90;;;;;;4152100;28;20064;-85
2021/01/22 07:36:38;;;;;;;0.68;0.20;;;10.50;99.90;;;;;;4154568;28;20053;-86
2021/01/22 07:38:39;;;;;;;1.05;0.50;;;10.50;99.90;;;;;;4136747;28;20049;-86
2021/01/22 07:40:43;;;;;;;0.65;0.30;;;10.40;99.90;;;;;;4151407;28;20133;-86
2021/01/22 07:42:45;;;;;;;0.40;0.35;;;10.40;99.90;;;;;;4153949;28;20056;-86
2021/01/22 07:44:47;;;;;;;0.60;0.60;;;10.40;99.90;;;;;;4154270;28;20561;-86
2021/01/22 07:46:49;;;;;;;0.50;0.47;;;10.40;99.90;;;;;;4133104;28;20050;-85
2021/01/22 07:48:50;;;;;;;0.57;0.32;;;10.40;99.90;;;;;;4154989;28;20418;-86
2021/01/22 07:50:51;;;;;;;1.20;0.50;;;10.40;99.90;;;;;;4154253;28;20084;-85
2021/01/22 07:52:53;;;;;;;6.78;1.65;;;10.40;99.90;;;;;;4149259;28;20052;-86
2021/01/22 07:54:54;;;;;;;1.10;0.50;;;10.40;99.90;;;;;;4154963;28;20392;-86
2021/01/22 07:56:56;;;;;;;0.50;0.50;;;10.40;99.90;;;;;;4154573;28;20571;-86
2021/01/22 07:58:57;;;;;;;1.10;0.55;;;10.40;99.90;;;;;;4149120;28;20053;-86
2021/01/22 08:00:59;;;;;;;2.10;0.30;;;10.40;99.90;;;;;;4159791;28;20049;-86
2021/01/22 08:03:00;;;;;;;0.50;0.40;;;10.40;99.90;;;;;;4158971;28;20128;-85
2021/01/22 08:05:04;;;;;;;1.02;0.85;;;10.40;99.90;;;;;;4149669;28;20092;-86
2021/01/22 08:07:05;;;;;;;1.98;1.40;;;10.40;99.90;;;;;;4154451;28;20046;-85
2021/01/22 08:09:11;;;;;;;1.40;0.38;;;10.40;99.90;;;;;;4154267;28;20084;-86
2021/01/22 08:11:20;;;;;;;0.45;0.45;;;10.40;99.90;;;;;;4149794;28;20053;-84
2021/01/22 08:13:21;;;;;;;0.15;0.15;;;10.40;99.90;;;;;;4152331;28;20516;-84
2021/01/22 08:15:23;;;;;;;0.47;0.43;;;10.40;99.90;;;;;;4152985;28;20050;-85
2021/01/22 08:17:24;;;;;;;1.02;0.30;;;10.40;99.90;;;;;;4150052;28;20042;-85
2021/01/22 08:19:26;;;;;;;0.85;0.57;;;10.40;99.90;;;;;;4156674;28;20081;-79
2021/01/22 08:21:31;;;;;;;0.30;0.30;;;10.40;99.90;;;;;;4167627;28;20069;-84
2021/01/22 08:23:32;;;;;;;0.73;0.73;;;10.50;99.90;;;;;;4156602;28;20063;-84
2021/01/22 08:25:38;;;;;;;0.65;0.35;;;10.50;99.90;;;;;;4155459;28;20058;-83
2021/01/22 08:27:39;;;;;;;1.65;0.77;;;10.50;99.90;;;;;;4157079;28;20054;-86
2021/01/22 08:29:41;;;;;;;0.55;0.25;;;10.50;99.90;;;;;;4153368;28;20073;-86
2021/01/22 08:31:42;;;;;;;0.20;0.20;;;10.50;99.90;;;;;;4132617;28;20051;-83
2021/01/22 08:33:43;;;;;;;0.20;0.20;;;10.50;99.90;;;;;;4136772;28;20054;-85
2021/01/22 08:35:45;;;;;;;0.90;0.40;;;10.50;99.90;;;;;;4153370;28;20077;-86
2021/01/22 08:37:46;;;;;;;1.02;0.30;;;10.50;99.90;;;;;;4148842;28;20050;-86
2021/01/22 08:39:58;;;;;;;0.50;0.50;;;10.60;99.90;;;;;;4153091;28;20463;-82
2021/01/22 08:42:12;;;;;;;1.27;0.68;;;10.60;99.90;;;;;;4153031;28;20105;-86
2021/01/22 08:44:13;;;;;;;1.67;1.58;;;10.60;99.70;;;;;;4148733;28;20077;-87
2021/01/22 08:46:14;;;;;;;2.03;1.58;;;10.60;99.90;;;;;;4153117;28;20064;-88
2021/01/22 08:48:16;;;;;;;0.10;0.10;;;10.70;99.50;;;;;;4135904;28;20129;-84
2021/01/22 08:50:18;;;;;;;4.28;0.47;;;10.60;99.90;;;;;;4148663;28;20593;-84
2021/01/22 08:52:19;;;;;;;3.50;0.47;;;10.60;99.50;;;;;;4135432;28;20105;-86
2021/01/22 08:54:20;;;;;;;0.30;0.30;;;10.60;99.50;;;;;;4152728;28;20508;-83
2021/01/22 08:56:22;;;;;;;0.30;0.10;;;10.70;99.50;;;;;;4132949;28;20430;-83
2021/01/22 08:58:23;;;;;;;0.52;0.32;;;10.70;99.30;;;;;;4150662;28;20481;-82
2021/01/22 09:00:25;;;;;;;0.90;0.40;;;10.80;99.20;;;;;;4135290;28;20104;-84
2021/01/22 09:02:45;;;;;;;0.80;0.32;;;10.80;99.10;;;;;;4149466;28;20046;-84
2021/01/22 09:04:46;;;;;;;0.25;0.25;;;10.90;98.80;;;;;;4133074;28;20050;-84
2021/01/22 09:06:52;;;;;;;10.82;0.52;;;11.00;99.00;;;;;;4152020;28;20064;-84
2021/01/22 09:08:54;;;;;;;0.47;0.20;;;11.00;98.80;;;;;;4135422;28;20064;-83
2021/01/22 09:10:55;;;;;;;0.77;0.55;;;11.00;98.50;;;;;;4148250;28;20053;-84
2021/01/22 09:13:10;;;;;;;0.73;0.70;;;11.10;98.70;;;;;;4150163;28;20129;-84
2021/01/22 09:15:14;;;;;;;0.98;0.45;;;11.20;98.10;;;;;;4151822;28;20046;-85
2021/01/22 09:17:38;;;;;;;0.10;0.10;;;11.20;97.90;;;;;;4147718;28;20453;-85
2021/01/22 09:19:54;;;;;;;0.45;0.17;;;11.20;98.00;;;;;;4149100;28;20053;-85
2021/01/22 09:21:55;;;;;;;4.97;0.50;;;11.20;97.60;;;;;;4153924;28;20050;-85
2021/01/22 09:23:56;;;;;;;0.28;0.15;;;11.30;97.70;;;;;;4151342;28;20125;-84
2021/01/22 09:25:58;;;;;;;0.70;0.25;;;11.30;97.80;;;;;;4148738;28;20148;-84
2021/01/22 09:27:59;;;;;;;0.13;0.13;;;11.40;97.30;;;;;;4152885;28;20599;-82
2021/01/22 09:30:01;;;;;;;0.10;0.10;;;11.40;97.50;;;;;;4152537;28;20045;-81
2021/01/22 09:32:07;;;;;;;0.20;0.20;;;11.40;97.70;;;;;;4147062;28;20060;-82
2021/01/22 09:34:08;;;;;;;0.85;0.30;;;11.40;97.30;;;;;;4152637;28;20053;-81
2021/01/22 09:36:10;;;;;;;0.88;0.68;;;11.40;97.30;;;;;;4152732;28;20441;-83
2021/01/22 09:38:11;;;;;;;1.27;1.17;;;11.40;97.10;;;;;;4148015;28;20042;-82
2021/01/22 09:40:13;;;;;;;0.43;0.43;;;11.40;97.40;;;;;;4155599;28;20156;-82
2021/01/22 09:42:15;;;;;;;0.25;0.25;;;11.50;97.50;;;;;;4155863;28;20516;-82
2021/01/22 09:44:18;;;;;;;0.90;0.20;;;11.50;97.40;;;;;;4146438;28;20434;-81
2021/01/22 09:46:19;;;;;;;0.50;0.32;;;11.50;97.10;;;;;;4150757;28;20050;-82
2021/01/22 09:48:21;;;;;;;1.65;0.40;;;11.50;96.90;;;;;;4152149;28;20449;-82
2021/01/22 09:50:22;;;;;;;0.10;0.10;;;11.60;95.80;;;;;;4149044;28;20510;-82
2021/01/22 09:52:23;;;;;;;0.10;0.10;;;11.70;95.20;;;;;;4151239;28;20050;-81
2021/01/22 09:54:25;;;;;;;1.48;0.40;;;11.70;95.00;;;;;;4151787;28;20050;-82
2021/01/22 09:56:26;;;;;;;0.22;0.13;;;11.80;94.80;;;;;;4150059;28;20133;-82
2021/01/22 09:58:30;;;;;;;0.13;0.13;;;11.80;94.70;;;;;;4150554;28;20498;-81
2021/01/22 10:00:31;;;;;;;0.50;0.20;;;11.80;94.60;;;;;;4151762;28;20070;-82
2021/01/22 10:02:32;;;;;;;0.20;0.20;;;11.80;95.10;;;;;;4150413;28;20866;-82
2021/01/22 10:04:35;;;;;;;0.10;0.10;;;11.90;95.40;;;;;;4148230;28;20046;-82
2021/01/22 10:06:36;;;;;;;0.20;0.20;;;11.90;95.10;;;;;;4150603;28;20058;-83
2021/01/22 10:08:38;;;;;;;0.85;0.20;;;11.90;95.10;;;;;;4151286;28;20048;-82
2021/01/22 10:10:39;;;;;;;0.82;0.30;;;11.90;94.60;;;;;;4147479;28;20065;-83
2021/01/22 10:12:47;;;;;;;2.60;0.10;;;11.90;94.80;;;;;;4150795;28;20042;-83
2021/01/22 10:14:48;;;;;;;0.35;0.20;;;12.00;95.00;;;;;;4150832;28;20045;-82
2021/01/22 10:16:49;;;;;;;1.13;0.73;;;12.00;95.20;;;;;;4113872;28;20579;-82
2021/01/22 10:18:53;;;;;;;2.78;1.02;;;12.00;94.90;;;;;;4166887;28;20128;-82
2021/01/22 10:20:55;;;;;;;0.65;0.30;;;12.00;95.10;;;;;;4151440;28;20520;-82
2021/01/22 10:22:56;;;;;;;0.63;0.50;;;12.00;94.80;;;;;;4147333;28;20137;-83
2021/01/22 10:24:57;;;;;;;3.10;0.20;;;12.10;94.90;;;;;;4150228;28;20050;-82
2021/01/22 10:26:58;;;;;;;0.40;0.30;;;12.00;94.70;;;;;;4151377;28;20440;-83
2021/01/22 10:28:59;;;;;;;0.10;0.10;;;12.10;94.70;;;;;;4146118;28;20085;-85
2021/01/22 10:31:01;;;;;;;0.30;0.20;;;12.00;94.70;;;;;;4151870;28;20411;-81
2021/01/22 10:33:02;;;;;;;0.80;0.73;;;12.00;94.50;;;;;;4150755;28;20399;-82
2021/01/22 10:35:06;;;;;;;0.15;0.10;;;12.10;94.60;;;;;;4147357;28;20045;-82
2021/01/22 10:37:08;;;;;;;0.65;0.20;;;12.10;94.50;;;;;;4159082;28;20414;-83
2021/01/22 10:39:10;;;;;;;6.70;0.40;;;12.10;94.20;;;;;;4154987;28;20064;-82
2021/01/22 10:41:11;;;;;;;0.30;0.30;;;12.20;94.20;;;;;;4147318;28;20050;-82